sensor_id;sensor_type;location;lat;lon;timestamp;P1;durP1;ratioP1;P2;durP2;ratioP2
62419;SDS011;48460;51.616;5.426;2023-04-08T00:12:13;36.05;;;16.95;;
62419;SDS011;48460;51.616;5.426;2023-04-08T00:23:45;38.75;;;17.05;;
62419;SDS011;48460;51.616;5.426;2023-04-08T00:36:19;39.47;;;17.88;;
62419;SDS011;48460;51.616;5.426;2023-04-08T01:01:54;47.83;;;20.23;;
62419;SDS011;48460;51.616;5.426;2023-04-08T01:04:46;49.45;;;20.17;;
62419;SDS011;48460;51.616;5.426;2023-04-08T05:04:05;103.75;;;22.90;;
62419;SDS011;48460;51.616;5.426;2023-04-08T05:06:31;109.03;;;22.98;;
62419;SDS011;48460;51.616;5.426;2023-04-08T05:08:59;72.32;;;23.30;;
62419;SDS011;48460;51.616;5.426;2023-04-08T05:11:25;62.17;;;23.10;;
62419;SDS011;48460;51.616;5.426;2023-04-08T05:14:01;73.68;;;21.98;;
62419;SDS011;48460;51.616;5.426;2023-04-08T05:19:50;63.35;;;22.25;;
62419;SDS011;48460;51.616;5.426;2023-04-08T05:25:09;77.60;;;23.33;;
62419;SDS011;48460;51.616;5.426;2023-04-08T05:27:37;59.00;;;22.73;;
62419;SDS011;48460;51.616;5.426;2023-04-08T05:30:04;59.78;;;22.25;;
62419;SDS011;48460;51.616;5.426;2023-04-08T05:45:07;48.45;;;21.40;;
62419;SDS011;48460;51.616;5.426;2023-04-08T05:50:55;44.75;;;21.08;;
62419;SDS011;48460;51.616;5.426;2023-04-08T05:53:21;47.30;;;22.58;;
62419;SDS011;48460;51.616;5.426;2023-04-08T05:55:54;48.85;;;22.70;;
62419;SDS011;48460;51.616;5.426;2023-04-08T06:05:29;47.95;;;22.40;;
62419;SDS011;48460;51.616;5.426;2023-04-08T06:10:53;47.63;;;22.15;;
62419;SDS011;48460;51.616;5.426;2023-04-08T06:16:49;41.35;;;20.77;;
62419;SDS011;48460;51.616;5.426;2023-04-08T06:19:17;45.20;;;21.88;;
62419;SDS011;48460;51.616;5.426;2023-04-08T06:21:44;51.00;;;22.92;;
62419;SDS011;48460;51.616;5.426;2023-04-08T06:24:19;53.95;;;23.35;;
62419;SDS011;48460;51.616;5.426;2023-04-08T06:29:48;52.83;;;24.10;;
62419;SDS011;48460;51.616;5.426;2023-04-08T06:35:45;51.40;;;23.38;;
62419;SDS011;48460;51.616;5.426;2023-04-08T08:30:21;35.70;;;18.25;;
62419;SDS011;48460;51.616;5.426;2023-04-08T08:36:14;34.50;;;19.13;;
62419;SDS011;48460;51.616;5.426;2023-04-08T08:49:05;27.92;;;17.17;;
62419;SDS011;48460;51.616;5.426;2023-04-08T08:58:28;33.33;;;19.45;;
62419;SDS011;48460;51.616;5.426;2023-04-08T09:11:23;28.85;;;17.80;;
62419;SDS011;48460;51.616;5.426;2023-04-08T09:17:53;26.43;;;17.40;;
62419;SDS011;48460;51.616;5.426;2023-04-08T09:27:07;26.45;;;16.80;;
62419;SDS011;48460;51.616;5.426;2023-04-08T09:33:07;26.85;;;18.10;;
62419;SDS011;48460;51.616;5.426;2023-04-08T09:42:29;27.10;;;17.92;;
62419;SDS011;48460;51.616;5.426;2023-04-08T09:48:19;26.00;;;18.17;;
62419;SDS011;48460;51.616;5.426;2023-04-08T09:50:49;29.10;;;18.40;;
62419;SDS011;48460;51.616;5.426;2023-04-08T09:53:19;28.98;;;18.45;;
62419;SDS011;48460;51.616;5.426;2023-04-08T09:55:52;25.08;;;18.08;;
62419;SDS011;48460;51.616;5.426;2023-04-08T09:58:56;30.05;;;19.02;;
62419;SDS011;48460;51.616;5.426;2023-04-08T10:02:08;26.60;;;17.92;;
62419;SDS011;48460;51.616;5.426;2023-04-08T10:04:45;28.48;;;19.23;;
62419;SDS011;48460;51.616;5.426;2023-04-08T10:07:18;28.67;;;18.58;;
62419;SDS011;48460;51.616;5.426;2023-04-08T10:09:45;25.67;;;18.15;;
62419;SDS011;48460;51.616;5.426;2023-04-08T10:12:11;29.00;;;18.88;;
62419;SDS011;48460;51.616;5.426;2023-04-08T10:14:42;26.77;;;18.92;;
62419;SDS011;48460;51.616;5.426;2023-04-08T10:26:41;26.20;;;17.30;;
62419;SDS011;48460;51.616;5.426;2023-04-08T10:31:48;26.73;;;18.20;;
62419;SDS011;48460;51.616;5.426;2023-04-08T10:34:21;25.38;;;17.85;;
62419;SDS011;48460;51.616;5.426;2023-04-08T10:36:53;24.45;;;18.33;;
62419;SDS011;48460;51.616;5.426;2023-04-08T10:39:30;25.35;;;17.42;;
62419;SDS011;48460;51.616;5.426;2023-04-08T10:42:25;27.58;;;17.88;;
62419;SDS011;48460;51.616;5.426;2023-04-08T10:44:51;26.35;;;18.80;;
62419;SDS011;48460;51.616;5.426;2023-04-08T10:47:25;23.35;;;17.20;;
62419;SDS011;48460;51.616;5.426;2023-04-08T10:49:53;21.88;;;16.45;;
62419;SDS011;48460;51.616;5.426;2023-04-08T10:52:25;23.45;;;17.70;;
62419;SDS011;48460;51.616;5.426;2023-04-08T10:54:55;24.27;;;17.25;;
62419;SDS011;48460;51.616;5.426;2023-04-08T10:57:24;22.38;;;16.25;;
62419;SDS011;48460;51.616;5.426;2023-04-08T10:59:51;26.02;;;17.10;;
62419;SDS011;48460;51.616;5.426;2023-04-08T11:02:24;24.33;;;17.38;;
62419;SDS011;48460;51.616;5.426;2023-04-08T11:05:08;23.65;;;16.40;;
62419;SDS011;48460;51.616;5.426;2023-04-08T11:07:41;24.08;;;16.50;;
62419;SDS011;48460;51.616;5.426;2023-04-08T11:10:08;23.38;;;16.23;;
62419;SDS011;48460;51.616;5.426;2023-04-08T11:12:37;23.58;;;16.58;;
62419;SDS011;48460;51.616;5.426;2023-04-08T11:15:03;22.48;;;15.57;;
62419;SDS011;48460;51.616;5.426;2023-04-08T11:17:33;21.15;;;16.48;;
62419;SDS011;48460;51.616;5.426;2023-04-08T11:19:59;24.52;;;17.67;;
62419;SDS011;48460;51.616;5.426;2023-04-08T11:22:27;22.40;;;15.88;;
62419;SDS011;48460;51.616;5.426;2023-04-08T11:24:59;20.55;;;15.50;;
62419;SDS011;48460;51.616;5.426;2023-04-08T11:31:19;23.27;;;15.63;;
62419;SDS011;48460;51.616;5.426;2023-04-08T11:33:51;20.30;;;16.00;;
62419;SDS011;48460;51.616;5.426;2023-04-08T11:36:19;20.48;;;15.60;;
62419;SDS011;48460;51.616;5.426;2023-04-08T11:38:53;22.23;;;15.93;;
62419;SDS011;48460;51.616;5.426;2023-04-08T11:41:20;20.60;;;14.93;;
62419;SDS011;48460;51.616;5.426;2023-04-08T11:43:52;19.80;;;13.88;;
62419;SDS011;48460;51.616;5.426;2023-04-08T11:46:20;20.63;;;15.68;;
62419;SDS011;48460;51.616;5.426;2023-04-08T11:49:01;21.13;;;16.02;;
62419;SDS011;48460;51.616;5.426;2023-04-08T11:51:30;22.08;;;15.77;;
62419;SDS011;48460;51.616;5.426;2023-04-08T11:54:26;22.55;;;15.52;;
62419;SDS011;48460;51.616;5.426;2023-04-08T11:56:53;21.40;;;15.60;;
62419;SDS011;48460;51.616;5.426;2023-04-08T11:59:22;21.15;;;15.68;;
62419;SDS011;48460;51.616;5.426;2023-04-08T12:01:48;19.80;;;14.43;;
62419;SDS011;48460;51.616;5.426;2023-04-08T12:04:19;20.02;;;15.40;;
62419;SDS011;48460;51.616;5.426;2023-04-08T12:06:45;20.17;;;15.98;;
62419;SDS011;48460;51.616;5.426;2023-04-08T12:09:15;20.83;;;16.13;;
62419;SDS011;48460;51.616;5.426;2023-04-08T12:11:40;19.52;;;14.95;;
62419;SDS011;48460;51.616;5.426;2023-04-08T12:14:07;20.52;;;15.13;;
62419;SDS011;48460;51.616;5.426;2023-04-08T12:16:34;19.10;;;15.40;;
62419;SDS011;48460;51.616;5.426;2023-04-08T12:19:02;17.48;;;13.98;;
62419;SDS011;48460;51.616;5.426;2023-04-08T12:21:28;17.88;;;13.65;;
62419;SDS011;48460;51.616;5.426;2023-04-08T12:27:24;17.90;;;13.35;;
62419;SDS011;48460;51.616;5.426;2023-04-08T12:39:24;17.85;;;14.23;;
62419;SDS011;48460;51.616;5.426;2023-04-08T12:41:50;21.45;;;13.40;;
62419;SDS011;48460;51.616;5.426;2023-04-08T12:44:20;19.60;;;13.70;;
62419;SDS011;48460;51.616;5.426;2023-04-08T12:46:57;15.85;;;13.07;;
62419;SDS011;48460;51.616;5.426;2023-04-08T12:49:24;16.92;;;12.65;;
62419;SDS011;48460;51.616;5.426;2023-04-08T12:51:50;18.73;;;14.15;;
62419;SDS011;48460;51.616;5.426;2023-04-08T12:54:16;18.10;;;14.18;;
62419;SDS011;48460;51.616;5.426;2023-04-08T13:05:39;17.60;;;13.93;;
62419;SDS011;48460;51.616;5.426;2023-04-08T13:08:05;20.08;;;13.82;;
62419;SDS011;48460;51.616;5.426;2023-04-08T13:10:33;19.88;;;14.98;;
62419;SDS011;48460;51.616;5.426;2023-04-08T13:12:59;18.35;;;14.00;;
62419;SDS011;48460;51.616;5.426;2023-04-08T13:18:48;17.65;;;14.07;;
62419;SDS011;48460;51.616;5.426;2023-04-08T13:21:14;16.35;;;13.30;;
62419;SDS011;48460;51.616;5.426;2023-04-08T13:23:43;21.67;;;14.10;;
62419;SDS011;48460;51.616;5.426;2023-04-08T13:26:12;20.80;;;14.10;;
62419;SDS011;48460;51.616;5.426;2023-04-08T13:28:37;18.88;;;13.50;;
62419;SDS011;48460;51.616;5.426;2023-04-08T13:31:05;18.60;;;14.57;;
62419;SDS011;48460;51.616;5.426;2023-04-08T13:33:33;23.00;;;13.75;;
62419;SDS011;48460;51.616;5.426;2023-04-08T13:35:59;18.25;;;13.75;;
62419;SDS011;48460;51.616;5.426;2023-04-08T13:38:24;19.08;;;13.43;;
62419;SDS011;48460;51.616;5.426;2023-04-08T13:40:51;16.85;;;12.60;;
62419;SDS011;48460;51.616;5.426;2023-04-08T13:43:19;17.52;;;10.15;;
62419;SDS011;48460;51.616;5.426;2023-04-08T13:45:45;14.15;;;10.38;;
62419;SDS011;48460;51.616;5.426;2023-04-08T13:48:10;17.90;;;11.02;;
62419;SDS011;48460;51.616;5.426;2023-04-08T13:50:37;16.15;;;11.07;;
62419;SDS011;48460;51.616;5.426;2023-04-08T13:53:05;15.82;;;10.90;;
62419;SDS011;48460;51.616;5.426;2023-04-08T13:55:34;20.50;;;11.85;;
62419;SDS011;48460;51.616;5.426;2023-04-08T13:58:02;18.25;;;11.63;;
62419;SDS011;48460;51.616;5.426;2023-04-08T14:00:30;14.38;;;11.27;;
62419;SDS011;48460;51.616;5.426;2023-04-08T14:02:56;18.08;;;11.20;;
62419;SDS011;48460;51.616;5.426;2023-04-08T14:05:24;17.50;;;11.98;;
62419;SDS011;48460;51.616;5.426;2023-04-08T14:07:54;17.52;;;11.65;;
62419;SDS011;48460;51.616;5.426;2023-04-08T14:10:30;16.42;;;11.40;;
62419;SDS011;48460;51.616;5.426;2023-04-08T14:16:42;15.75;;;11.05;;
62419;SDS011;48460;51.616;5.426;2023-04-08T14:19:30;14.57;;;10.30;;
62419;SDS011;48460;51.616;5.426;2023-04-08T14:21:58;15.70;;;10.98;;
62419;SDS011;48460;51.616;5.426;2023-04-08T14:24:36;15.63;;;11.52;;
62419;SDS011;48460;51.616;5.426;2023-04-08T14:27:23;16.88;;;10.93;;
62419;SDS011;48460;51.616;5.426;2023-04-08T14:29:56;18.88;;;11.25;;
62419;SDS011;48460;51.616;5.426;2023-04-08T14:32:30;17.08;;;11.85;;
62419;SDS011;48460;51.616;5.426;2023-04-08T14:34:57;15.38;;;11.20;;
62419;SDS011;48460;51.616;5.426;2023-04-08T14:37:38;16.63;;;10.77;;
62419;SDS011;48460;51.616;5.426;2023-04-08T14:40:12;15.43;;;11.18;;
62419;SDS011;48460;51.616;5.426;2023-04-08T14:42:42;14.75;;;10.63;;
62419;SDS011;48460;51.616;5.426;2023-04-08T14:45:09;14.60;;;10.80;;
62419;SDS011;48460;51.616;5.426;2023-04-08T14:47:41;14.02;;;10.05;;
62419;SDS011;48460;51.616;5.426;2023-04-08T14:50:08;12.90;;;10.13;;
62419;SDS011;48460;51.616;5.426;2023-04-08T14:52:45;13.73;;;10.85;;
62419;SDS011;48460;51.616;5.426;2023-04-08T14:55:14;18.77;;;10.70;;
62419;SDS011;48460;51.616;5.426;2023-04-08T15:01:20;13.68;;;9.93;;
62419;SDS011;48460;51.616;5.426;2023-04-08T15:04:09;15.10;;;10.00;;
62419;SDS011;48460;51.616;5.426;2023-04-08T15:06:41;13.38;;;9.85;;
62419;SDS011;48460;51.616;5.426;2023-04-08T15:09:09;15.35;;;10.68;;
62419;SDS011;48460;51.616;5.426;2023-04-08T15:11:36;17.38;;;10.48;;
62419;SDS011;48460;51.616;5.426;2023-04-08T15:17:01;15.13;;;10.45;;
62419;SDS011;48460;51.616;5.426;2023-04-08T15:22:22;13.40;;;9.48;;
62419;SDS011;48460;51.616;5.426;2023-04-08T15:24:57;14.90;;;10.07;;
62419;SDS011;48460;51.616;5.426;2023-04-08T15:27:31;16.80;;;10.07;;
62419;SDS011;48460;51.616;5.426;2023-04-08T15:30:00;17.33;;;10.57;;
62419;SDS011;48460;51.616;5.426;2023-04-08T15:32:31;15.27;;;10.32;;
62419;SDS011;48460;51.616;5.426;2023-04-08T15:35:18;14.00;;;9.50;;
62419;SDS011;48460;51.616;5.426;2023-04-08T15:37:46;14.32;;;9.63;;
62419;SDS011;48460;51.616;5.426;2023-04-08T15:40:20;18.95;;;9.60;;
62419;SDS011;48460;51.616;5.426;2023-04-08T15:42:59;18.85;;;10.15;;
62419;SDS011;48460;51.616;5.426;2023-04-08T15:45:25;17.30;;;9.50;;
62419;SDS011;48460;51.616;5.426;2023-04-08T15:47:54;16.92;;;10.07;;
62419;SDS011;48460;51.616;5.426;2023-04-08T15:50:19;16.50;;;9.43;;
62419;SDS011;48460;51.616;5.426;2023-04-08T15:52:47;13.30;;;8.82;;
62419;SDS011;48460;51.616;5.426;2023-04-08T15:55:13;15.32;;;9.00;;
62419;SDS011;48460;51.616;5.426;2023-04-08T15:57:39;14.65;;;8.75;;
62419;SDS011;48460;51.616;5.426;2023-04-08T16:00:08;15.85;;;9.63;;
62419;SDS011;48460;51.616;5.426;2023-04-08T16:02:53;16.65;;;10.18;;
62419;SDS011;48460;51.616;5.426;2023-04-08T16:05:19;15.15;;;9.43;;
62419;SDS011;48460;51.616;5.426;2023-04-08T16:07:58;13.32;;;8.65;;
62419;SDS011;48460;51.616;5.426;2023-04-08T16:10:23;14.00;;;8.90;;
62419;SDS011;48460;51.616;5.426;2023-04-08T16:12:49;11.35;;;8.05;;
62419;SDS011;48460;51.616;5.426;2023-04-08T16:15:40;14.05;;;8.55;;
62419;SDS011;48460;51.616;5.426;2023-04-08T16:18:31;12.70;;;8.25;;
62419;SDS011;48460;51.616;5.426;2023-04-08T16:21:26;13.15;;;8.43;;
62419;SDS011;48460;51.616;5.426;2023-04-08T16:23:52;12.75;;;8.00;;
62419;SDS011;48460;51.616;5.426;2023-04-08T16:26:32;12.02;;;8.20;;
62419;SDS011;48460;51.616;5.426;2023-04-08T16:29:26;11.98;;;8.05;;
62419;SDS011;48460;51.616;5.426;2023-04-08T16:32:08;12.00;;;8.65;;
62419;SDS011;48460;51.616;5.426;2023-04-08T16:34:58;10.57;;;8.20;;
62419;SDS011;48460;51.616;5.426;2023-04-08T16:37:24;11.85;;;7.53;;
62419;SDS011;48460;51.616;5.426;2023-04-08T16:39:56;12.07;;;8.45;;
62419;SDS011;48460;51.616;5.426;2023-04-08T16:42:33;14.60;;;8.77;;
62419;SDS011;48460;51.616;5.426;2023-04-08T16:45:04;14.63;;;8.70;;
62419;SDS011;48460;51.616;5.426;2023-04-08T16:48:03;11.50;;;8.27;;
62419;SDS011;48460;51.616;5.426;2023-04-08T16:50:30;11.82;;;8.50;;
62419;SDS011;48460;51.616;5.426;2023-04-08T16:53:29;12.98;;;8.20;;
62419;SDS011;48460;51.616;5.426;2023-04-08T16:56:32;13.25;;;8.63;;
62419;SDS011;48460;51.616;5.426;2023-04-08T16:58:51;11.70;;;7.88;;
62419;SDS011;48460;51.616;5.426;2023-04-08T17:01:18;14.85;;;8.63;;
62419;SDS011;48460;51.616;5.426;2023-04-08T17:03:51;12.65;;;7.68;;
62419;SDS011;48460;51.616;5.426;2023-04-08T17:06:20;14.15;;;7.85;;
62419;SDS011;48460;51.616;5.426;2023-04-08T17:08:46;14.57;;;8.43;;
62419;SDS011;48460;51.616;5.426;2023-04-08T17:11:16;12.95;;;8.30;;
62419;SDS011;48460;51.616;5.426;2023-04-08T17:13:54;11.48;;;7.90;;
62419;SDS011;48460;51.616;5.426;2023-04-08T17:16:24;18.77;;;10.95;;
62419;SDS011;48460;51.616;5.426;2023-04-08T17:18:50;23.88;;;14.00;;
62419;SDS011;48460;51.616;5.426;2023-04-08T17:21:21;21.23;;;11.20;;
62419;SDS011;48460;51.616;5.426;2023-04-08T17:23:51;17.75;;;9.25;;
62419;SDS011;48460;51.616;5.426;2023-04-08T17:26:20;13.48;;;9.35;;
62419;SDS011;48460;51.616;5.426;2023-04-08T17:28:47;12.55;;;9.30;;
62419;SDS011;48460;51.616;5.426;2023-04-08T17:31:14;13.60;;;9.40;;
62419;SDS011;48460;51.616;5.426;2023-04-08T17:33:41;15.18;;;8.70;;
62419;SDS011;48460;51.616;5.426;2023-04-08T17:36:12;12.85;;;8.63;;
62419;SDS011;48460;51.616;5.426;2023-04-08T17:38:44;15.38;;;10.13;;
62419;SDS011;48460;51.616;5.426;2023-04-08T17:41:14;14.35;;;9.95;;
62419;SDS011;48460;51.616;5.426;2023-04-08T17:43:43;13.57;;;9.40;;
62419;SDS011;48460;51.616;5.426;2023-04-08T17:46:12;13.55;;;9.75;;
62419;SDS011;48460;51.616;5.426;2023-04-08T17:48:37;13.23;;;9.75;;
62419;SDS011;48460;51.616;5.426;2023-04-08T17:51:06;13.35;;;9.23;;
62419;SDS011;48460;51.616;5.426;2023-04-08T17:53:33;14.05;;;9.27;;
62419;SDS011;48460;51.616;5.426;2023-04-08T17:56:08;12.20;;;9.50;;
62419;SDS011;48460;51.616;5.426;2023-04-08T17:58:42;14.52;;;9.10;;
62419;SDS011;48460;51.616;5.426;2023-04-08T18:01:12;14.75;;;9.20;;
62419;SDS011;48460;51.616;5.426;2023-04-08T18:03:49;14.82;;;10.25;;
62419;SDS011;48460;51.616;5.426;2023-04-08T18:06:23;15.90;;;9.37;;
62419;SDS011;48460;51.616;5.426;2023-04-08T18:08:52;13.95;;;9.60;;
62419;SDS011;48460;51.616;5.426;2023-04-08T18:11:18;15.57;;;9.85;;
62419;SDS011;48460;51.616;5.426;2023-04-08T18:13:46;14.90;;;9.77;;
62419;SDS011;48460;51.616;5.426;2023-04-08T18:16:16;15.35;;;9.75;;
62419;SDS011;48460;51.616;5.426;2023-04-08T18:18:52;17.73;;;10.10;;
62419;SDS011;48460;51.616;5.426;2023-04-08T18:21:40;15.00;;;10.30;;
62419;SDS011;48460;51.616;5.426;2023-04-08T18:24:11;14.23;;;10.15;;
62419;SDS011;48460;51.616;5.426;2023-04-08T18:26:38;16.25;;;10.65;;
62419;SDS011;48460;51.616;5.426;2023-04-08T18:29:07;14.30;;;10.63;;
62419;SDS011;48460;51.616;5.426;2023-04-08T18:31:36;15.82;;;10.05;;
62419;SDS011;48460;51.616;5.426;2023-04-08T18:34:05;15.05;;;10.32;;
62419;SDS011;48460;51.616;5.426;2023-04-08T18:36:30;18.13;;;10.40;;
62419;SDS011;48460;51.616;5.426;2023-04-08T18:38:56;16.45;;;9.88;;
62419;SDS011;48460;51.616;5.426;2023-04-08T18:41:24;14.02;;;10.02;;
62419;SDS011;48460;51.616;5.426;2023-04-08T18:43:55;17.52;;;10.30;;
62419;SDS011;48460;51.616;5.426;2023-04-08T18:46:29;15.02;;;10.27;;
62419;SDS011;48460;51.616;5.426;2023-04-08T18:48:57;15.60;;;10.70;;
62419;SDS011;48460;51.616;5.426;2023-04-08T18:51:25;16.92;;;10.75;;
62419;SDS011;48460;51.616;5.426;2023-04-08T18:53:51;15.98;;;10.63;;
62419;SDS011;48460;51.616;5.426;2023-04-08T18:56:17;16.33;;;10.80;;
62419;SDS011;48460;51.616;5.426;2023-04-08T18:58:46;16.35;;;10.50;;
62419;SDS011;48460;51.616;5.426;2023-04-08T19:01:13;16.60;;;10.43;;
62419;SDS011;48460;51.616;5.426;2023-04-08T19:03:51;14.57;;;10.85;;
62419;SDS011;48460;51.616;5.426;2023-04-08T19:06:18;19.35;;;10.40;;
62419;SDS011;48460;51.616;5.426;2023-04-08T19:08:50;15.13;;;10.15;;
62419;SDS011;48460;51.616;5.426;2023-04-08T19:11:15;18.42;;;10.77;;
62419;SDS011;48460;51.616;5.426;2023-04-08T19:13:44;14.93;;;10.77;;
62419;SDS011;48460;51.616;5.426;2023-04-08T19:16:10;18.70;;;10.25;;
62419;SDS011;48460;51.616;5.426;2023-04-08T19:18:48;21.15;;;11.65;;
62419;SDS011;48460;51.616;5.426;2023-04-08T19:21:17;19.98;;;11.20;;
62419;SDS011;48460;51.616;5.426;2023-04-08T19:23:44;19.65;;;11.15;;
62419;SDS011;48460;51.616;5.426;2023-04-08T19:26:11;17.27;;;11.77;;
62419;SDS011;48460;51.616;5.426;2023-04-08T19:28:40;17.35;;;11.27;;
62419;SDS011;48460;51.616;5.426;2023-04-08T19:31:14;17.60;;;11.50;;
62419;SDS011;48460;51.616;5.426;2023-04-08T19:33:40;17.35;;;11.25;;
62419;SDS011;48460;51.616;5.426;2023-04-08T19:36:10;19.20;;;11.55;;
62419;SDS011;48460;51.616;5.426;2023-04-08T19:38:36;18.23;;;12.10;;
62419;SDS011;48460;51.616;5.426;2023-04-08T19:41:02;20.23;;;12.07;;
62419;SDS011;48460;51.616;5.426;2023-04-08T19:43:35;19.10;;;11.98;;
62419;SDS011;48460;51.616;5.426;2023-04-08T19:46:04;19.30;;;12.20;;
62419;SDS011;48460;51.616;5.426;2023-04-08T19:48:36;17.52;;;11.70;;
62419;SDS011;48460;51.616;5.426;2023-04-08T19:51:03;17.27;;;12.30;;
62419;SDS011;48460;51.616;5.426;2023-04-08T19:53:36;19.65;;;12.15;;
62419;SDS011;48460;51.616;5.426;2023-04-08T19:56:04;21.00;;;12.27;;
62419;SDS011;48460;51.616;5.426;2023-04-08T19:58:38;20.08;;;12.18;;
62419;SDS011;48460;51.616;5.426;2023-04-08T20:01:09;22.58;;;12.70;;
62419;SDS011;48460;51.616;5.426;2023-04-08T20:03:42;19.27;;;12.10;;
62419;SDS011;48460;51.616;5.426;2023-04-08T20:06:16;18.40;;;12.23;;
62419;SDS011;48460;51.616;5.426;2023-04-08T20:08:44;16.92;;;11.43;;
62419;SDS011;48460;51.616;5.426;2023-04-08T20:11:14;19.42;;;12.80;;
62419;SDS011;48460;51.616;5.426;2023-04-08T20:13:40;24.35;;;16.08;;
62419;SDS011;48460;51.616;5.426;2023-04-08T20:16:07;26.45;;;16.08;;
62419;SDS011;48460;51.616;5.426;2023-04-08T20:18:33;23.10;;;15.07;;
62419;SDS011;48460;51.616;5.426;2023-04-08T20:21:00;22.95;;;15.95;;
62419;SDS011;48460;51.616;5.426;2023-04-08T20:23:25;23.58;;;15.90;;
62419;SDS011;48460;51.616;5.426;2023-04-08T20:25:52;22.48;;;15.25;;
62419;SDS011;48460;51.616;5.426;2023-04-08T20:28:18;22.40;;;16.05;;
62419;SDS011;48460;51.616;5.426;2023-04-08T20:30:50;23.27;;;15.30;;
62419;SDS011;48460;51.616;5.426;2023-04-08T20:33:17;22.77;;;15.88;;
62419;SDS011;48460;51.616;5.426;2023-04-08T20:35:54;23.67;;;15.57;;
62419;SDS011;48460;51.616;5.426;2023-04-08T20:38:22;22.30;;;15.45;;
62419;SDS011;48460;51.616;5.426;2023-04-08T20:40:50;24.80;;;15.18;;
62419;SDS011;48460;51.616;5.426;2023-04-08T20:43:17;26.75;;;15.95;;
62419;SDS011;48460;51.616;5.426;2023-04-08T20:46:03;22.58;;;15.60;;
62419;SDS011;48460;51.616;5.426;2023-04-08T20:48:32;23.90;;;15.95;;
62419;SDS011;48460;51.616;5.426;2023-04-08T20:50:58;24.77;;;16.00;;
62419;SDS011;48460;51.616;5.426;2023-04-08T20:53:24;27.15;;;16.23;;
62419;SDS011;48460;51.616;5.426;2023-04-08T20:55:51;23.92;;;15.75;;
62419;SDS011;48460;51.616;5.426;2023-04-08T20:58:23;22.58;;;15.80;;
62419;SDS011;48460;51.616;5.426;2023-04-08T21:00:49;25.67;;;16.73;;
62419;SDS011;48460;51.616;5.426;2023-04-08T21:03:24;24.95;;;16.08;;
62419;SDS011;48460;51.616;5.426;2023-04-08T21:05:54;25.83;;;16.55;;
62419;SDS011;48460;51.616;5.426;2023-04-08T21:08:20;22.52;;;16.25;;
62419;SDS011;48460;51.616;5.426;2023-04-08T21:10:50;22.73;;;16.35;;
62419;SDS011;48460;51.616;5.426;2023-04-08T21:13:18;24.00;;;16.85;;
62419;SDS011;48460;51.616;5.426;2023-04-08T21:15:44;23.90;;;16.55;;
62419;SDS011;48460;51.616;5.426;2023-04-08T21:18:10;28.27;;;17.30;;
62419;SDS011;48460;51.616;5.426;2023-04-08T21:20:37;28.65;;;17.75;;
62419;SDS011;48460;51.616;5.426;2023-04-08T21:23:08;23.77;;;16.40;;
62419;SDS011;48460;51.616;5.426;2023-04-08T21:25:34;24.75;;;17.02;;
62419;SDS011;48460;51.616;5.426;2023-04-08T21:28:04;25.80;;;16.38;;
62419;SDS011;48460;51.616;5.426;2023-04-08T21:30:34;25.65;;;17.05;;
62419;SDS011;48460;51.616;5.426;2023-04-08T21:33:13;24.98;;;16.65;;
62419;SDS011;48460;51.616;5.426;2023-04-08T21:35:41;24.90;;;17.55;;
62419;SDS011;48460;51.616;5.426;2023-04-08T21:38:10;26.30;;;18.20;;
62419;SDS011;48460;51.616;5.426;2023-04-08T21:40:46;29.10;;;15.93;;
62419;SDS011;48460;51.616;5.426;2023-04-08T21:43:11;24.55;;;16.67;;
62419;SDS011;48460;51.616;5.426;2023-04-08T21:45:37;26.48;;;15.90;;
62419;SDS011;48460;51.616;5.426;2023-04-08T21:48:08;23.60;;;16.77;;
62419;SDS011;48460;51.616;5.426;2023-04-08T21:50:36;26.15;;;17.13;;
62419;SDS011;48460;51.616;5.426;2023-04-08T21:53:06;25.83;;;16.45;;
62419;SDS011;48460;51.616;5.426;2023-04-08T21:55:34;33.10;;;17.23;;
62419;SDS011;48460;51.616;5.426;2023-04-08T21:58:03;25.58;;;16.85;;
62419;SDS011;48460;51.616;5.426;2023-04-08T22:00:29;26.00;;;16.65;;
62419;SDS011;48460;51.616;5.426;2023-04-08T22:02:56;27.80;;;17.52;;
62419;SDS011;48460;51.616;5.426;2023-04-08T22:05:26;26.85;;;17.13;;
62419;SDS011;48460;51.616;5.426;2023-04-08T22:07:55;27.30;;;17.75;;
62419;SDS011;48460;51.616;5.426;2023-04-08T22:10:30;27.88;;;17.05;;
62419;SDS011;48460;51.616;5.426;2023-04-08T22:12:58;25.83;;;17.33;;
62419;SDS011;48460;51.616;5.426;2023-04-08T22:15:24;25.13;;;16.77;;
62419;SDS011;48460;51.616;5.426;2023-04-08T22:17:53;26.55;;;17.38;;
62419;SDS011;48460;51.616;5.426;2023-04-08T22:20:18;26.02;;;17.08;;
62419;SDS011;48460;51.616;5.426;2023-04-08T22:22:47;24.35;;;16.23;;
62419;SDS011;48460;51.616;5.426;2023-04-08T22:25:13;22.88;;;15.85;;
62419;SDS011;48460;51.616;5.426;2023-04-08T22:27:40;25.63;;;16.77;;
62419;SDS011;48460;51.616;5.426;2023-04-08T22:30:08;28.40;;;16.55;;
62419;SDS011;48460;51.616;5.426;2023-04-08T22:32:35;28.77;;;18.50;;
62419;SDS011;48460;51.616;5.426;2023-04-08T22:35:06;28.60;;;17.65;;
62419;SDS011;48460;51.616;5.426;2023-04-08T22:37:34;27.08;;;18.10;;
62419;SDS011;48460;51.616;5.426;2023-04-08T22:39:59;26.60;;;16.77;;
62419;SDS011;48460;51.616;5.426;2023-04-08T22:42:28;24.15;;;16.95;;
62419;SDS011;48460;51.616;5.426;2023-04-08T22:47:23;20.05;;;14.48;;
62419;SDS011;48460;51.616;5.426;2023-04-08T22:49:52;24.42;;;16.00;;
62419;SDS011;48460;51.616;5.426;2023-04-08T22:52:27;24.58;;;15.93;;
62419;SDS011;48460;51.616;5.426;2023-04-08T22:54:55;25.73;;;15.88;;
62419;SDS011;48460;51.616;5.426;2023-04-08T22:57:25;25.83;;;15.60;;
62419;SDS011;48460;51.616;5.426;2023-04-08T22:59:53;22.30;;;14.75;;
62419;SDS011;48460;51.616;5.426;2023-04-08T23:02:19;24.98;;;15.88;;
62419;SDS011;48460;51.616;5.426;2023-04-08T23:04:51;24.65;;;16.08;;
62419;SDS011;48460;51.616;5.426;2023-04-08T23:07:21;23.40;;;16.23;;
62419;SDS011;48460;51.616;5.426;2023-04-08T23:09:50;24.85;;;17.38;;
62419;SDS011;48460;51.616;5.426;2023-04-08T23:12:17;25.27;;;16.58;;
62419;SDS011;48460;51.616;5.426;2023-04-08T23:14:43;24.48;;;16.35;;
62419;SDS011;48460;51.616;5.426;2023-04-08T23:17:08;25.92;;;16.55;;
62419;SDS011;48460;51.616;5.426;2023-04-08T23:19:36;23.52;;;16.80;;
62419;SDS011;48460;51.616;5.426;2023-04-08T23:22:02;25.77;;;17.33;;
62419;SDS011;48460;51.616;5.426;2023-04-08T23:24:33;26.30;;;17.27;;
62419;SDS011;48460;51.616;5.426;2023-04-08T23:26:58;26.90;;;17.75;;
62419;SDS011;48460;51.616;5.426;2023-04-08T23:29:25;27.67;;;17.52;;
62419;SDS011;48460;51.616;5.426;2023-04-08T23:31:51;24.73;;;17.15;;
62419;SDS011;48460;51.616;5.426;2023-04-08T23:34:16;29.50;;;18.15;;
62419;SDS011;48460;51.616;5.426;2023-04-08T23:36:44;29.10;;;17.58;;
62419;SDS011;48460;51.616;5.426;2023-04-08T23:39:10;27.67;;;17.17;;
62419;SDS011;48460;51.616;5.426;2023-04-08T23:41:38;24.55;;;17.30;;
62419;SDS011;48460;51.616;5.426;2023-04-08T23:44:04;24.58;;;17.88;;
62419;SDS011;48460;51.616;5.426;2023-04-08T23:46:31;26.30;;;17.88;;
62419;SDS011;48460;51.616;5.426;2023-04-08T23:49:00;30.13;;;17.95;;
62419;SDS011;48460;51.616;5.426;2023-04-08T23:51:34;33.75;;;22.42;;
62419;SDS011;48460;51.616;5.426;2023-04-08T23:54:03;38.80;;;23.55;;
62419;SDS011;48460;51.616;5.426;2023-04-08T23:56:29;37.28;;;23.25;;
62419;SDS011;48460;51.616;5.426;2023-04-08T23:58:55;33.63;;;21.17;;
